• Join FlightAware (Why Join?)
  • Login
  • US Flag 
09:11PM EDT


 

Airport Tracker/Info


-or-


 

Live Flight TrackerFlight Track Log ✈ ASQ520B ✈ 05-May-2012 ✈ KIAD - KEWR

Flight Track Log - Related Links

Times and Time Zones

All times are in EDT time to prevent confusion due to time zone crossing. See the ASQ520B flight status page for this flight to view local times or setup timezone preferences in your user account.

Time Position Orientation Groundspeed Altitude Reporting Facility
EDT Latitude Longitude Course Direction KTS MPH feet Rate Location/Type
07:33PM 38.9667 -77.4333 349° North 178 205 1,500  Level Potomac TRACON
07:34PM 39.0333 -77.4500 345° North 221 254 4,600 3,000 Climbing Potomac TRACON
07:35PM 39.0833 -77.4667 38° Northeast 219 252 7,600 2,520 Climbing Potomac TRACON
07:36PM 39.1333 -77.4167 90° East 275 316 9,700 1,560 Climbing Potomac TRACON
07:37PM 39.1333 -77.3000 110° East 338 389 10,800 1,620 Climbing Potomac TRACON
07:38PM 39.1000 -77.1833 115° Southeast 357 411 13,000 1,980 Climbing Potomac TRACON
07:39PM 39.0786 -77.1236 88° East 364 419 14,000 1,680 Climbing Washington Center
07:40PM 39.0825 -76.9928 84° East 364 419 15,700 1,320 Climbing Washington Center
07:41PM 39.0944 -76.8539 83° East 369 425 16,700 600 Climbing Washington Center
07:42PM 39.1083 -76.7069 82° East 390 449 17,000 120 Climbing Washington Center
07:43PM 39.1242 -76.5603 67° East 410 472 17,000  Level Washington Center
07:44PM 39.1689 -76.4214 64° Northeast 410 472 17,000  Level Washington Center
07:45PM 39.2197 -76.2856 60° Northeast 410 472 17,000 -60 Level Washington Center
07:46PM 39.2831 -76.1414 47° Northeast 418 481 16,900 -60 Descending Washington Center
07:47PM 39.3606 -76.0344 45° Northeast 407 468 16,900  Level Washington Center
07:48PM 39.4422 -75.9300 44° Northeast 407 468 16,900  Level Washington Center
07:49PM 39.5236 -75.8283 44° Northeast 407 468 16,900  Level Washington Center
07:50PM 39.6053 -75.7261 45° Northeast 402 463 16,900  Level Washington Center
07:51PM 39.6886 -75.6186 45° Northeast 407 468 16,900  Level Washington Center
07:52PM 39.7719 -75.5106 44° Northeast 407 468 16,900  Level Washington Center
07:53PM 39.8364 -75.4294 45° Northeast 407 468 16,900 -720 Level Washington Center
07:54PM 39.9236 -75.3156 44° Northeast 407 468 15,500 -1,800 Descending Washington Center
07:55PM 40.0006 -75.2178 43° Northeast 401 461 13,400 -1,500 Descending Washington Center
07:58PM 40.2167 -74.9500 44° Northeast 293 337 9,500 -1,320 Descending New York TRACON
07:59PM 40.2833 -74.8667 45° Northeast 280 322 8,100 -840 Descending New York TRACON
08:00PM 40.3333 -74.8000 57° Northeast 271 312 8,000 -540 Descending New York TRACON
08:01PM 40.3667 -74.7333 37° Northeast 228 262 7,100 -960 Descending New York TRACON
08:02PM 40.4167 -74.6833 21° North 234 269 6,100 -660 Descending New York TRACON
08:03PM 40.4833 -74.6500 114° Southeast 201 231 5,800 -660 Descending New York TRACON
08:04PM 40.4667 -74.6000 153° Southeast 220 253 4,900 -960 Descending New York TRACON
08:05PM 40.4167 -74.5667 131° Southeast 194 223 3,900 -840 Descending New York TRACON
08:06PM 40.3833 -74.5167 143° Southeast 185 213 3,200 -480 Descending New York TRACON
08:07PM 40.3500 -74.4833 72° East 183 211 3,000 -120 Descending New York TRACON
08:08PM 40.3667 -74.4167 66° East 184 212 3,000  Level New York TRACON
08:09PM 40.3833 -74.3667 27° Northeast 184 212 3,000  Level New York TRACON
08:10PM 40.4333 -74.3333 27° Northeast 186 214 3,100  Climbing New York TRACON
08:11PM 40.4833 -74.3000 27° Northeast 184 212 3,000 -120 Descending New York TRACON